Wheatland, California
Current Conditions -  °F | °C
As of 8:15 PM on Tuesday 27 Jan 2015 (Local Time) from KLHM Reporting Station
Clear Clear  
Wind Chill: 50°   Ceiling: Unl
Heat Index: 50°   Visibility: 5mi
Dew Point: 46°   Wind: 3mph
Humidity: 87%   Direction: 330°NNW
Pressure: 30.24"   Gusts: NA
Location:  39.01°N, 121.42°W
Report Text: KLHM 280415Z AUTO 33003KT 5SM CLR 10/08 A3024 RMK AO1
Loading
Personal Weather Stations






























Interactive Weather Map New forecast layout! Learn more

10-Day Weather Forecast

Advertisements
Track Severe Weather on mobile